Dades meteomassalio
Diari Summary for Marc 19, 2017 Units:  English    Metric   Both
« Previous Day
Next Day »
Diari Semanal Mensual Anual Personalitzat
  Maxima: Minima: Mijana:
Temperatura: TemperatureC °F 4.7 °F 13.1 °F
Rosada: DewpointC °F 2.1 °F 4.9 °F
Humitat: Humidity % 35 % 61 %
Velocitat del vent: WindSpeedKMH mph 0.0 mph 4.8 mph
Racha vent: WindSpeedGustKMH mph - -
Vent:- - West
Pressio: PressurehPa in 1014.1 in -
Pluja: 0.0 in    
Historical Graphs
 
 
Tabular Data for Marc 19, 2017
Time Temperature Dew Point Pressure Wind Wind Speed Wind Gust Humidity Rainfall Rate (Hourly) solar Conditions
TemperatureC °F DewpointC °F PressurehPa in Calm     Humidity % HourlyPrecipMM in SolarRadiationWatts/m^2 W/m2 Conditions
00:03 9.3 °F 5.3 °F 1021.2 in Calm     76 % 0.0 in 0.0 W/m2 CLR
00:08 9.2 °F 5.2 °F 1021.2 in Calm     76 % 0.0 in 0.0 W/m2 CLR
00:13 8.9 °F 5.1 °F 1021.2 in Calm     77 % 0.0 in 0.0 W/m2 CLR
00:18 8.7 °F 5.1 °F 1021.2 in Calm     78 % 0.0 in 0.0 W/m2 CLR
00:23 8.5 °F 4.9 °F 1021.2 in Calm     78 % 0.0 in 0.0 W/m2 CLR
00:28 8.3 °F 4.9 °F 1021.2 in Calm     79 % 0.0 in 0.0 W/m2 CLR
00:33 8.2 °F 4.8 °F 1021.2 in Calm     79 % 0.0 in 0.0 W/m2 CLR
00:38 8.1 °F 4.7 °F 1021.2 in Calm     79 % 0.0 in 0.0 W/m2 CLR
00:43 8.0 °F 4.6 °F 1021.2 in Calm     79 % 0.0 in 0.0 W/m2 CLR
00:48 7.9 °F 4.7 °F 1021.2 in Calm     80 % 0.0 in 0.0 W/m2 CLR
00:54 7.9 °F 4.4 °F 1021.2 in Calm     79 % 0.0 in 0.0 W/m2 CLR
00:59 7.7 °F 4.3 °F 1021.2 in Calm     79 % 0.0 in 0.0 W/m2 CLR
01:04 7.6 °F 4.3 °F 1021.2 in Calm     80 % 0.0 in 0.0 W/m2 CLR
01:09 7.4 °F 4.2 °F 1021.2 in Calm     80 % 0.0 in 0.0 W/m2 CLR
01:13 7.4 °F 4.3 °F 1021.2 in Calm     81 % 0.0 in 0.0 W/m2 CLR
01:19 7.3 °F 4.2 °F 1021.2 in Calm     81 % 0.0 in 0.0 W/m2 CLR
01:24 7.1 °F 4.1 °F 1021.2 in Calm     81 % 0.0 in 0.0 W/m2 CLR
01:29 7.1 °F 4.0 °F 1021.2 in Calm     81 % 0.0 in 0.0 W/m2 CLR
01:34 7.0 °F 3.9 °F 1021.2 in Calm     81 % 0.0 in 0.0 W/m2 CLR
01:39 6.9 °F 3.8 °F 1021.2 in Calm     81 % 0.0 in 0.0 W/m2 CLR
01:44 6.8 °F 4.0 °F 1021.2 in Calm     82 % 0.0 in 0.0 W/m2 CLR
01:49 6.9 °F 3.8 °F 1021.2 in Calm     81 % 0.0 in 0.0 W/m2 CLR
01:54 6.8 °F 3.8 °F 1020.9 in Calm     81 % 0.0 in 0.0 W/m2 CLR
01:59 6.7 °F 3.7 °F 1020.9 in Calm     81 % 0.0 in 0.0 W/m2 CLR
02:04 6.6 °F 3.6 °F 1020.9 in Calm     81 % 0.0 in 0.0 W/m2 CLR
02:09 6.5 °F 3.5 °F 1020.9 in Calm     81 % 0.0 in 0.0 W/m2 CLR
02:14 6.4 °F 3.6 °F 1020.9 in Calm     82 % 0.0 in 0.0 W/m2 CLR
02:19 6.4 °F 3.6 °F 1020.9 in Calm     82 % 0.0 in 0.0 W/m2 CLR
02:24 6.4 °F 3.6 °F 1020.9 in Calm     82 % 0.0 in 0.0 W/m2 CLR
02:29 6.3 °F 3.5 °F 1020.5 in Calm     82 % 0.0 in 0.0 W/m2 CLR
02:34 6.3 °F 3.4 °F 1020.5 in Calm     82 % 0.0 in 0.0 W/m2 CLR
02:39 6.3 °F 3.4 °F 1020.5 in Calm     82 % 0.0 in 0.0 W/m2 CLR
02:44 6.3 °F 3.4 °F 1020.5 in Calm     82 % 0.0 in 0.0 W/m2 CLR
02:49 6.3 °F 3.4 °F 1020.5 in Calm     82 % 0.0 in 0.0 W/m2 CLR
02:54 6.2 °F 3.4 °F 1020.5 in Calm     82 % 0.0 in 0.0 W/m2 CLR
02:59 6.2 °F 3.4 °F 1020.5 in Calm     82 % 0.0 in 0.0 W/m2 CLR
03:04 6.2 °F 3.3 °F 1020.5 in Calm     82 % 0.0 in 0.0 W/m2 CLR
03:09 6.2 °F 3.3 °F 1020.2 in Calm     82 % 0.0 in 0.0 W/m2 CLR
03:14 6.3 °F 3.4 °F 1020.2 in Calm     82 % 0.0 in 0.0 W/m2 CLR
03:19 6.4 °F 3.4 °F 1020.2 in Calm     81 % 0.0 in 0.0 W/m2 CLR
03:24 6.4 °F 3.2 °F 1020.5 in Calm     80 % 0.0 in 0.0 W/m2 CLR
03:29 6.3 °F 3.3 °F 1020.5 in Calm     81 % 0.0 in 0.0 W/m2 CLR
03:34 6.2 °F 3.2 °F 1020.2 in Calm     81 % 0.0 in 0.0 W/m2 CLR
03:39 6.2 °F 3.2 °F 1020.2 in Calm     81 % 0.0 in 0.0 W/m2 CLR
03:44 6.2 °F 3.2 °F 1020.2 in Calm     81 % 0.0 in 0.0 W/m2 CLR
03:49 6.2 °F 3.2 °F 1020.2 in Calm     81 % 0.0 in 0.0 W/m2 CLR
03:54 6.3 °F 3.3 °F 1020.2 in Calm     81 % 0.0 in 0.0 W/m2 CLR
03:59 6.3 °F 3.1 °F 1020.2 in Calm     80 % 0.0 in 0.0 W/m2 CLR
04:04 6.2 °F 3.2 °F 1020.2 in Calm     81 % 0.0 in 0.0 W/m2 CLR
04:09 6.3 °F 3.1 °F 1019.9 in Calm     80 % 0.0 in 0.0 W/m2 CLR
04:14 6.3 °F 3.1 °F 1019.9 in Calm     80 % 0.0 in 0.0 W/m2 CLR
04:19 6.2 °F 3.0 °F 1019.9 in Calm     80 % 0.0 in 0.0 W/m2 CLR
04:24 6.3 °F 3.1 °F 1019.9 in WSW 7.4 mph 7.4 mph 80 % 0.0 in 0.0 W/m2 CLR
04:29 6.7 °F 3.5 °F 1019.9 in SW 11.1 mph 11.1 mph 80 % 0.0 in 0.0 W/m2 CLR
04:34 7.7 °F 3.6 °F 1019.9 in WSW 13.0 mph 13.0 mph 75 % 0.0 in 0.0 W/m2 CLR
04:39 8.3 °F 3.5 °F 1019.9 in WSW 9.3 mph 9.3 mph 72 % 0.0 in 0.0 W/m2 CLR
04:44 8.6 °F 3.2 °F 1019.9 in WSW 7.4 mph 7.4 mph 69 % 0.0 in 0.0 W/m2 CLR
04:49 8.7 °F 3.2 °F 1019.9 in SW 7.4 mph 7.4 mph 68 % 0.0 in 0.0 W/m2 CLR
04:54 9.0 °F 3.2 °F 1019.9 in WSW 7.4 mph 7.4 mph 67 % 0.0 in 0.0 W/m2 CLR
04:59 9.3 °F 3.1 °F 1019.9 in WSW 9.7 mph 9.7 mph 65 % 0.0 in 0.0 W/m2 CLR
05:04 9.8 °F 3.1 °F 1019.9 in SW 6.4 mph 6.4 mph 63 % 0.0 in 0.0 W/m2 CLR
05:09 9.8 °F 3.1 °F 1019.9 in WSW 5.6 mph 5.6 mph 63 % 0.0 in 0.0 W/m2 CLR
05:14 9.5 °F 3.0 °F 1020.2 in WSW 5.6 mph 5.6 mph 64 % 0.0 in 0.0 W/m2 CLR
05:19 9.1 °F 2.9 °F 1019.9 in Calm     65 % 0.0 in 0.0 W/m2 CLR
05:24 8.4 °F 2.6 °F 1019.9 in Calm     67 % 0.0 in 0.0 W/m2 CLR
05:29 7.9 °F 2.8 °F 1019.9 in Calm     70 % 0.0 in 0.0 W/m2 CLR
05:34 7.4 °F 2.7 °F 1019.9 in Calm     72 % 0.0 in 0.0 W/m2 CLR
05:39 7.2 °F 2.7 °F 1019.9 in Calm     73 % 0.0 in 0.0 W/m2 CLR
05:44 6.9 °F 2.6 °F 1019.9 in Calm     74 % 0.0 in 0.0 W/m2 CLR
05:49 6.6 °F 2.5 °F 1019.9 in Calm     75 % 0.0 in 0.0 W/m2 CLR
05:54 6.6 °F 2.6 °F 1019.9 in SW 1.9 mph   76 % 0.0 in 0.0 W/m2 CLR
05:59 6.6 °F 2.6 °F 1019.9 in SW 5.6 mph 5.6 mph 76 % 0.0 in 0.0 W/m2 CLR
06:04 6.7 °F 2.7 °F 1019.9 in Calm     76 % 0.0 in 0.0 W/m2 CLR
06:09 6.6 °F 2.6 °F 1019.9 in Calm     76 % 0.0 in 0.0 W/m2 CLR
06:14 6.3 °F 2.6 °F 1019.9 in Calm     77 % 0.0 in 0.0 W/m2 CLR
06:19 6.0 °F 2.4 °F 1020.2 in Calm     78 % 0.0 in 0.0 W/m2 CLR
06:24 5.8 °F 2.4 °F 1020.2 in Calm     79 % 0.0 in 0.0 W/m2 CLR
06:29 5.7 °F 2.3 °F 1020.2 in Calm   1.4 mph 79 % 0.0 in 0.0 W/m2 CLR
06:34 5.6 °F 2.4 °F 1020.2 in Calm     80 % 0.0 in 0.0 W/m2 CLR
06:39 5.5 °F 2.3 °F 1020.2 in Calm     80 % 0.0 in 0.0 W/m2 CLR
06:44 5.3 °F 2.3 °F 1020.2 in Calm     81 % 0.0 in 0.0 W/m2 CLR
06:49 5.1 °F 2.1 °F 1020.2 in Calm     81 % 0.0 in 0.0 W/m2 CLR
06:54 5.0 °F 2.2 °F 1020.5 in Calm   0.2 mph 82 % 0.0 in 0.0 W/m2 CLR
06:59 5.0 °F 2.2 °F 1020.5 in Calm     82 % 0.0 in 0.0 W/m2 CLR
07:04 5.0 °F 2.2 °F 1020.5 in Calm     82 % 0.0 in 0.0 W/m2 OVC
07:09 4.9 °F 2.1 °F 1020.5 in Calm     82 % 0.0 in 7.0 W/m2 BKN
07:14 4.8 °F 2.1 °F 1020.5 in Calm     83 % 0.0 in 9.0 W/m2 BKN
07:19 4.7 °F 2.1 °F 1020.5 in WSW 4.8 mph 4.8 mph 83 % 0.0 in 11.0 W/m2 BKN
07:25 4.8 °F 2.1 °F 1020.5 in SW 5.6 mph 5.6 mph 83 % 0.0 in 14.0 W/m2 BKN
07:30 4.9 °F 2.2 °F 1020.5 in Calm     83 % 0.0 in 16.0 W/m2 BKN
07:35 4.9 °F 2.2 °F 1020.5 in Calm     83 % 0.0 in 18.0 W/m2 BKN
07:40 5.0 °F 2.3 °F 1020.5 in Calm     83 % 0.0 in 32.0 W/m2 BKN
07:45 5.2 °F 2.7 °F 1020.5 in Calm     84 % 0.0 in 39.0 W/m2 BKN
07:50 5.3 °F 2.7 °F 1020.5 in Calm     83 % 0.0 in 49.0 W/m2 SCT
07:55 5.4 °F 2.7 °F 1020.5 in Calm     83 % 0.0 in 51.0 W/m2 SCT
08:00 5.7 °F 3.0 °F 1020.5 in Calm     83 % 0.0 in 83.0 W/m2 FEW
08:05 6.0 °F 3.2 °F 1020.5 in Calm     82 % 0.0 in 84.0 W/m2 FEW
08:10 6.4 °F 3.4 °F 1020.5 in Calm     81 % 0.0 in 121.0 W/m2 CLR
08:12 6.6 °F 3.5 °F 1020.5 in Calm     81 % 0.0 in 90.0 W/m2 CLR
08:17 6.9 °F 3.5 °F 1020.5 in Calm     79 % 0.0 in 118.0 W/m2 CLR
08:22 7.2 °F 3.4 °F 1020.5 in Calm     77 % 0.0 in 163.0 W/m2 CLR
08:27 7.6 °F 3.8 °F 1020.5 in Calm     77 % 0.0 in 183.0 W/m2 CLR
08:32 7.9 °F 4.1 °F 1020.5 in Calm     77 % 0.0 in 204.0 W/m2 CLR
08:37 8.4 °F 4.3 °F 1020.5 in Calm     75 % 0.0 in 227.0 W/m2 CLR
08:42 8.8 °F 4.4 °F 1020.5 in Calm     74 % 0.0 in 243.0 W/m2 CLR
08:47 9.3 °F 4.7 °F 1020.2 in Calm     73 % 0.0 in 258.0 W/m2 CLR
08:52 9.7 °F 4.7 °F 1020.2 in Calm     71 % 0.0 in 255.0 W/m2 CLR
08:57 10.1 °F 4.7 °F 1020.2 in Calm     69 % 0.0 in 290.0 W/m2 CLR
09:02 10.3 °F 4.8 °F 1020.2 in Calm     69 % 0.0 in 304.0 W/m2 CLR
09:07 10.8 °F 5.3 °F 1020.5 in Calm     69 % 0.0 in 322.0 W/m2 CLR
09:12 11.3 °F 5.2 °F 1020.2 in Calm     66 % 0.0 in 329.0 W/m2 CLR
09:17 11.7 °F 5.1 °F 1020.2 in Calm     64 % 0.0 in 355.0 W/m2 CLR
09:22 12.1 °F 5.2 °F 1020.2 in Calm     63 % 0.0 in 369.0 W/m2 CLR
09:27 12.4 °F 5.3 °F 1020.2 in Calm     62 % 0.0 in 383.0 W/m2 CLR
09:32 12.7 °F 5.6 °F 1020.2 in Calm     62 % 0.0 in 399.0 W/m2 CLR
09:37 12.8 °F 5.7 °F 1019.9 in Calm     62 % 0.0 in 417.0 W/m2 CLR
09:42 13.3 °F 6.2 °F 1019.9 in Calm     62 % 0.0 in 431.0 W/m2 CLR
09:47 14.0 °F 4.8 °F 1019.9 in NNW 18.5 mph 18.5 mph 54 % 0.0 in 445.0 W/m2 CLR
09:52 14.8 °F 3.6 °F 1019.9 in NW 18.5 mph 18.5 mph 47 % 0.0 in 457.0 W/m2 CLR
09:57 15.3 °F 3.4 °F 1019.9 in WNW 14.5 mph 14.5 mph 45 % 0.0 in 473.0 W/m2 CLR
10:02 15.6 °F 4.0 °F 1019.9 in NW 13.0 mph 13.0 mph 46 % 0.0 in 485.0 W/m2 CLR
10:07 15.8 °F 3.9 °F 1019.5 in NW 9.7 mph 9.7 mph 45 % 0.0 in 499.0 W/m2 CLR
10:12 16.0 °F 3.4 °F 1019.5 in NNW 13.0 mph 13.0 mph 43 % 0.0 in 512.0 W/m2 CLR
10:17 16.2 °F 2.9 °F 1019.5 in WSW 18.5 mph 18.5 mph 41 % 0.0 in 524.0 W/m2 CLR
10:22 16.4 °F 3.5 °F 1019.5 in WSW 13.0 mph 13.0 mph 42 % 0.0 in 540.0 W/m2 CLR
10:27 16.6 °F 3.6 °F 1019.5 in NNW 20.9 mph 20.9 mph 42 % 0.0 in 550.0 W/m2 CLR
10:32 16.6 °F 3.3 °F 1019.5 in NW 7.4 mph 7.4 mph 41 % 0.0 in 563.0 W/m2 CLR
10:37 16.7 °F 3.3 °F 1019.5 in NW 27.8 mph 27.8 mph 41 % 0.0 in 573.0 W/m2 CLR
10:42 16.6 °F 2.9 °F 1019.2 in WNW 18.5 mph 18.5 mph 40 % 0.0 in 587.0 W/m2 CLR
10:47 16.8 °F 3.4 °F 1019.2 in NW 19.3 mph 19.3 mph 41 % 0.0 in 596.0 W/m2 CLR
10:52 16.9 °F 3.6 °F 1019.2 in WNW 16.1 mph 16.1 mph 41 % 0.0 in 606.0 W/m2 CLR
10:57 16.9 °F 2.9 °F 1019.2 in WNW 18.5 mph 18.5 mph 39 % 0.0 in 617.0 W/m2 CLR
11:02 17.1 °F 3.7 °F 1019.2 in West 17.7 mph 17.7 mph 41 % 0.0 in 626.0 W/m2 CLR
11:07 17.1 °F 3.4 °F 1019.2 in WNW 24.1 mph 24.1 mph 40 % 0.0 in 638.0 W/m2 CLR
11:12 17.1 °F 4.4 °F 1019.2 in WNW 13.0 mph 13.0 mph 43 % 0.0 in 649.0 W/m2 CLR
11:17 17.2 °F 4.5 °F 1019.2 in WNW 7.4 mph 7.4 mph 43 % 0.0 in 654.0 W/m2 CLR
11:22 17.4 °F 4.0 °F 1019.2 in NNW 18.5 mph 18.5 mph 41 % 0.0 in 663.0 W/m2 CLR
11:27 17.5 °F 4.1 °F 1018.8 in WNW 17.7 mph 17.7 mph 41 % 0.0 in 675.0 W/m2 CLR
11:28 17.6 °F 3.8 °F 1018.8 in West 16.7 mph 16.7 mph 40 % 0.0 in 675.0 W/m2 CLR
11:33 17.6 °F 3.8 °F 1018.8 in WNW 18.5 mph 18.5 mph 40 % 0.0 in 684.0 W/m2 CLR
11:38 17.7 °F 4.3 °F 1018.8 in WNW 16.7 mph 16.7 mph 41 % 0.0 in 689.0 W/m2 CLR
11:43 18.0 °F 4.9 °F 1018.8 in NNW 19.3 mph 19.3 mph 42 % 0.0 in 694.0 W/m2 CLR
11:48 18.1 °F 4.2 °F 1018.8 in NNW 22.5 mph 22.5 mph 40 % 0.0 in 703.0 W/m2 CLR
11:53 18.0 °F 4.6 °F 1018.8 in NW 14.5 mph 14.5 mph 41 % 0.0 in 710.0 W/m2 CLR
11:58 18.0 °F 5.2 °F 1018.5 in NW 14.5 mph 14.5 mph 43 % 0.0 in 717.0 W/m2 CLR
12:03 18.1 °F 4.3 °F 1018.5 in West 13.0 mph 13.0 mph 40 % 0.0 in 722.0 W/m2 CLR
12:08 18.1 °F 5.0 °F 1018.5 in NNW 13.0 mph 13.0 mph 42 % 0.0 in 728.0 W/m2 CLR
12:13 18.3 °F 4.4 °F 1018.2 in West 14.8 mph 14.8 mph 40 % 0.0 in 731.0 W/m2 CLR
12:18 18.6 °F 5.4 °F 1018.2 in North 11.1 mph 11.1 mph 42 % 0.0 in 738.0 W/m2 CLR
12:23 18.8 °F 4.9 °F 1018.2 in WNW 7.4 mph 7.4 mph 40 % 0.0 in 742.0 W/m2 CLR
12:28 18.9 °F 5.1 °F 1018.2 in NNW 14.8 mph 14.8 mph 40 % 0.0 in 744.0 W/m2 CLR
12:33 18.9 °F 5.0 °F 1018.2 in NW 9.7 mph 9.7 mph 40 % 0.0 in 747.0 W/m2 CLR
12:38 19.1 °F 4.8 °F 1017.8 in Calm     39 % 0.0 in 751.0 W/m2 CLR
12:43 19.3 °F 4.9 °F 1017.8 in NNW 14.8 mph 14.8 mph 39 % 0.0 in 754.0 W/m2 CLR
12:48 19.2 °F 5.3 °F 1017.8 in WNW 13.0 mph 13.0 mph 40 % 0.0 in 756.0 W/m2 CLR
12:53 19.3 °F 5.3 °F 1017.8 in WNW 14.8 mph 14.8 mph 40 % 0.0 in 758.0 W/m2 CLR
12:58 19.5 °F 5.9 °F 1017.8 in NNW 13.0 mph 13.0 mph 41 % 0.0 in 758.0 W/m2 CLR
13:03 19.7 °F 5.7 °F 1017.8 in NNW 14.8 mph 14.8 mph 40 % 0.0 in 758.0 W/m2 CLR
13:08 19.7 °F 5.7 °F 1017.5 in WNW 13.0 mph 13.0 mph 40 % 0.0 in 758.0 W/m2 CLR
13:13 19.7 °F 6.4 °F 1017.5 in NNW 14.8 mph 14.8 mph 42 % 0.0 in 761.0 W/m2 CLR
13:18 19.7 °F 5.4 °F 1017.5 in NW 18.5 mph 18.5 mph 39 % 0.0 in 765.0 W/m2 CLR
13:23 19.7 °F 5.7 °F 1017.2 in NNE 16.7 mph 16.7 mph 40 % 0.0 in 770.0 W/m2 CLR
13:28 19.7 °F 5.4 °F 1017.2 in WNW 18.5 mph 18.5 mph 39 % 0.0 in 772.0 W/m2 CLR
13:33 19.8 °F 5.4 °F 1017.2 in WNW 9.3 mph 9.3 mph 39 % 0.0 in 752.0 W/m2 CLR
13:38 20.0 °F 5.6 °F 1017.2 in NW 16.7 mph 16.7 mph 39 % 0.0 in 752.0 W/m2 CLR
13:43 20.1 °F 6.1 °F 1017.2 in NW 14.8 mph 14.8 mph 40 % 0.0 in 763.0 W/m2 CLR
13:48 20.3 °F 6.6 °F 1016.8 in Calm     41 % 0.0 in 749.0 W/m2 CLR
13:53 20.4 °F 5.9 °F 1016.8 in NNW 19.3 mph 19.3 mph 39 % 0.0 in 707.0 W/m2 CLR
13:58 20.2 °F 5.8 °F 1016.8 in North 14.5 mph 14.5 mph 39 % 0.0 in 735.0 W/m2 CLR
14:03 20.3 °F 5.9 °F 1016.8 in NNW 14.8 mph 14.8 mph 39 % 0.0 in 712.0 W/m2 CLR
14:08 20.5 °F 6.1 °F 1016.8 in NE 13.0 mph 13.0 mph 39 % 0.0 in 686.0 W/m2 CLR
14:13 20.5 °F 6.1 °F 1016.8 in North 16.7 mph 16.7 mph 39 % 0.0 in 694.0 W/m2 CLR
14:18 20.3 °F 5.9 °F 1016.8 in NNE 11.1 mph 11.1 mph 39 % 0.0 in 742.0 W/m2 CLR
14:23 20.5 °F 6.1 °F 1016.5 in NNW 11.1 mph 11.1 mph 39 % 0.0 in 731.0 W/m2 CLR
14:28 20.4 °F 6.4 °F 1016.5 in WNW 5.6 mph 5.6 mph 40 % 0.0 in 721.0 W/m2 CLR
14:33 20.5 °F 5.7 °F 1016.5 in NNW 11.1 mph 11.1 mph 38 % 0.0 in 705.0 W/m2 CLR
14:38 20.5 °F 6.4 °F 1016.1 in North 13.0 mph 13.0 mph 40 % 0.0 in 710.0 W/m2 CLR
14:43 20.7 °F 6.9 °F 1016.1 in NW 7.4 mph 7.4 mph 41 % 0.0 in 703.0 W/m2 CLR
14:48 21.1 °F 7.0 °F 1016.1 in NW 14.8 mph 14.8 mph 40 % 0.0 in 703.0 W/m2 CLR
14:53 21.2 °F 6.3 °F 1016.1 in WNW 5.6 mph 5.6 mph 38 % 0.0 in 700.0 W/m2 CLR
14:58 21.4 °F 6.1 °F 1016.1 in NNW 9.3 mph 9.3 mph 37 % 0.0 in 735.0 W/m2 CLR
15:03 21.3 °F 6.1 °F 1015.8 in NNW 8.0 mph 8.0 mph 37 % 0.0 in 594.0 W/m2 CLR
15:08 21.4 °F 6.1 °F 1015.8 in WNW 14.8 mph 14.8 mph 37 % 0.0 in 612.0 W/m2 CLR
15:13 21.4 °F 5.3 °F 1015.8 in WNW 9.3 mph 9.3 mph 35 % 0.0 in 536.0 W/m2 CLR
15:18 21.6 °F 5.8 °F 1015.8 in Calm     36 % 0.0 in 559.0 W/m2 CLR
15:23 21.8 °F 6.5 °F 1015.8 in WNW 14.8 mph 14.8 mph 37 % 0.0 in 543.0 W/m2 CLR
15:28 21.8 °F 6.4 °F 1015.5 in NW 9.3 mph 9.3 mph 37 % 0.0 in 575.0 W/m2 CLR
15:33 21.5 °F 6.6 °F 1015.5 in NNW 14.8 mph 14.8 mph 38 % 0.0 in 564.0 W/m2 CLR
15:38 21.3 °F 5.7 °F 1015.5 in Calm     36 % 0.0 in 561.0 W/m2 CLR
15:43 21.5 °F 6.2 °F 1015.5 in NNW 5.6 mph   37 % 0.0 in 512.0 W/m2 CLR
15:48 21.8 °F 6.1 °F 1015.5 in WNW 9.3 mph 9.3 mph 36 % 0.0 in 563.0 W/m2 CLR
15:53 22.1 °F 6.3 °F 1015.5 in WNW 11.1 mph 11.1 mph 36 % 0.0 in 587.0 W/m2 CLR
15:58 22.0 °F 6.6 °F 1015.1 in WNW 9.3 mph   37 % 0.0 in 439.0 W/m2 CLR
16:03 22.0 °F 6.6 °F 1015.1 in WNW 11.3 mph 11.3 mph 37 % 0.0 in 570.0 W/m2 CLR
16:08 21.8 °F 6.5 °F 1015.1 in NNW 14.8 mph 14.8 mph 37 % 0.0 in 519.0 W/m2 CLR
16:13 21.8 °F 6.1 °F 1015.1 in NE 11.1 mph 11.1 mph 36 % 0.0 in 392.0 W/m2 CLR
16:18 21.9 °F 6.9 °F 1015.1 in NW 9.3 mph 9.3 mph 38 % 0.0 in 350.0 W/m2 CLR
16:23 21.9 °F 6.6 °F 1015.1 in NNW 18.5 mph 18.5 mph 37 % 0.0 in 396.0 W/m2 CLR
16:28 21.7 °F 6.4 °F 1014.8 in NNW 16.7 mph 16.7 mph 37 % 0.0 in 399.0 W/m2 CLR
16:33 21.7 °F 6.7 °F 1014.8 in North 13.0 mph 13.0 mph 38 % 0.0 in 468.0 W/m2 CLR
16:38 21.9 °F 6.1 °F 1014.8 in WNW 16.7 mph 16.7 mph 36 % 0.0 in 475.0 W/m2 CLR
16:43 22.0 °F 5.8 °F 1014.8 in WNW 7.4 mph 7.4 mph 35 % 0.0 in 441.0 W/m2 CLR
16:48 22.0 °F 7.0 °F 1014.8 in WNW 11.1 mph 11.1 mph 38 % 0.0 in 410.0 W/m2 CLR
16:53 22.1 °F 6.3 °F 1014.8 in NW 9.3 mph 9.3 mph 36 % 0.0 in 387.0 W/m2 CLR
16:58 22.0 °F 5.8 °F 1014.8 in Calm     35 % 0.0 in 369.0 W/m2 CLR
17:03 21.9 °F 5.8 °F 1014.4 in NNW 12.9 mph 12.9 mph 35 % 0.0 in 355.0 W/m2 CLR
17:08 21.8 °F 6.5 °F 1014.4 in NW 1.9 mph   37 % 0.0 in 338.0 W/m2 CLR
17:13 22.1 °F 6.7 °F 1014.4 in NNW 11.3 mph 11.3 mph 37 % 0.0 in 322.0 W/m2 CLR
17:18 21.9 °F 6.6 °F 1014.4 in NW 14.5 mph 14.5 mph 37 % 0.0 in 308.0 W/m2 CLR
17:23 21.7 °F 7.2 °F 1014.4 in North 5.6 mph 5.6 mph 39 % 0.0 in 292.0 W/m2 CLR
17:28 21.7 °F 6.7 °F 1014.4 in North 9.3 mph 9.3 mph 38 % 0.0 in 274.0 W/m2 CLR
17:33 21.6 °F 6.7 °F 1014.4 in NNW 5.6 mph 5.6 mph 38 % 0.0 in 255.0 W/m2 CLR
17:38 21.8 °F 6.1 °F 1014.4 in North 6.4 mph 6.4 mph 36 % 0.0 in 237.0 W/m2 CLR
17:43 21.7 °F 6.8 °F 1014.4 in NNW 9.3 mph 9.3 mph 38 % 0.0 in 220.0 W/m2 CLR
17:48 21.7 °F 6.4 °F 1014.4 in North 6.4 mph 6.4 mph 37 % 0.0 in 202.0 W/m2 CLR
17:53 21.5 °F 5.8 °F 1014.4 in NNW 11.1 mph 11.1 mph 36 % 0.0 in 179.0 W/m2 CLR
17:58 21.4 °F 6.1 °F 1014.4 in NNW 5.6 mph 5.6 mph 37 % 0.0 in 162.0 W/m2 CLR
18:03 21.4 °F 6.5 °F 1014.4 in NNW 7.4 mph 7.4 mph 38 % 0.0 in 142.0 W/m2 CLR
18:08 21.3 °F 6.4 °F 1014.4 in NNW 8.0 mph 8.0 mph 38 % 0.0 in 127.0 W/m2 CLR
18:13 21.1 °F 5.8 °F 1014.4 in NNW 5.6 mph   37 % 0.0 in 105.0 W/m2 CLR
18:18 21.1 °F 6.2 °F 1014.4 in Calm     38 % 0.0 in 90.0 W/m2 CLR
18:23 21.1 °F 6.9 °F 1014.1 in Calm     40 % 0.0 in 72.0 W/m2 FEW
18:28 21.0 °F 6.1 °F 1014.1 in Calm     38 % 0.0 in 49.0 W/m2 SCT
18:33 20.9 °F 6.4 °F 1014.1 in Calm     39 % 0.0 in 44.0 W/m2 BKN
18:38 20.8 °F 6.3 °F 1014.1 in Calm     39 % 0.0 in 32.0 W/m2 BKN
18:43 20.6 °F 6.9 °F 1014.4 in Calm     41 % 0.0 in 23.0 W/m2 BKN
18:48 20.4 °F 6.3 °F 1014.4 in Calm     40 % 0.0 in 14.0 W/m2 BKN
18:53 20.1 °F 6.1 °F 1014.4 in Calm     40 % 0.0 in 12.0 W/m2 BKN
18:58 19.7 °F 6.1 °F 1014.4 in Calm     41 % 0.0 in 11.0 W/m2 BKN
19:03 19.3 °F 6.1 °F 1014.4 in Calm     42 % 0.0 in 7.0 W/m2 BKN
19:08 19.1 °F 6.2 °F 1014.4 in Calm     43 % 0.0 in 5.0 W/m2 OVC
19:13 18.8 °F 6.3 °F 1014.4 in Calm     44 % 0.0 in 0.0 W/m2 OVC
19:18 18.6 °F 6.4 °F 1014.4 in Calm     45 % 0.0 in 0.0 W/m2 OVC
19:23 18.4 °F 6.9 °F 1014.4 in Calm     47 % 0.0 in 0.0 W/m2 CLR
19:28 18.0 °F 7.1 °F 1014.4 in Calm     49 % 0.0 in 0.0 W/m2 CLR
19:34 17.6 °F 6.8 °F 1014.8 in Calm     49 % 0.0 in 0.0 W/m2 CLR
19:39 17.3 °F 7.3 °F 1014.8 in Calm     52 % 0.0 in 0.0 W/m2 CLR
19:44 16.8 °F 6.9 °F 1014.8 in Calm     52 % 0.0 in 0.0 W/m2 CLR
19:49 16.4 °F 7.1 °F 1014.8 in Calm     54 % 0.0 in 0.0 W/m2 CLR
19:54 16.2 °F 7.6 °F 1014.8 in Calm     57 % 0.0 in 0.0 W/m2 CLR
19:59 15.6 °F 7.6 °F 1015.1 in Calm     59 % 0.0 in 0.0 W/m2 CLR
20:04 15.1 °F 7.4 °F 1015.1 in Calm     60 % 0.0 in 0.0 W/m2 CLR
20:09 14.8 °F 7.3 °F 1015.1 in Calm     61 % 0.0 in 0.0 W/m2 CLR
20:14 14.4 °F 7.5 °F 1015.1 in Calm     63 % 0.0 in 0.0 W/m2 CLR
20:19 14.1 °F 7.4 °F 1015.1 in Calm     64 % 0.0 in 0.0 W/m2 CLR
20:24 13.7 °F 7.3 °F 1015.1 in Calm     65 % 0.0 in 0.0 W/m2 CLR
20:29 13.4 °F 7.2 °F 1015.1 in Calm     66 % 0.0 in 0.0 W/m2 CLR
20:34 13.2 °F 7.2 °F 1015.1 in Calm     67 % 0.0 in 0.0 W/m2 CLR
20:39 13.1 °F 7.1 °F 1015.5 in Calm     67 % 0.0 in 0.0 W/m2 CLR
20:44 12.9 °F 7.1 °F 1015.5 in Calm     68 % 0.0 in 0.0 W/m2 CLR
20:49 12.8 °F 7.1 °F 1015.5 in Calm     68 % 0.0 in 0.0 W/m2 CLR
20:54 12.7 °F 7.1 °F 1015.5 in Calm     69 % 0.0 in 0.0 W/m2 CLR
20:59 12.6 °F 7.0 °F 1015.5 in Calm     69 % 0.0 in 0.0 W/m2 CLR
21:04 12.3 °F 7.0 °F 1015.5 in Calm     70 % 0.0 in 0.0 W/m2 CLR
21:09 12.1 °F 7.0 °F 1015.5 in Calm     71 % 0.0 in 0.0 W/m2 CLR
21:14 11.9 °F 7.0 °F 1015.5 in Calm     72 % 0.0 in 0.0 W/m2 CLR
21:19 11.7 °F 6.8 °F 1015.8 in Calm     72 % 0.0 in 0.0 W/m2 CLR
21:24 11.6 °F 6.9 °F 1015.8 in Calm     73 % 0.0 in 0.0 W/m2 CLR
21:29 11.5 °F 6.8 °F 1015.8 in Calm     73 % 0.0 in 0.0 W/m2 CLR
21:34 11.3 °F 6.9 °F 1015.8 in Calm     74 % 0.0 in 0.0 W/m2 CLR
21:39 11.2 °F 6.7 °F 1015.8 in Calm     74 % 0.0 in 0.0 W/m2 CLR
21:44 11.0 °F 6.7 °F 1015.8 in Calm     75 % 0.0 in 0.0 W/m2 CLR
21:49 10.9 °F 6.6 °F 1015.8 in Calm     75 % 0.0 in 0.0 W/m2 CLR
21:54 10.7 °F 6.7 °F 1015.8 in Calm     76 % 0.0 in 0.0 W/m2 CLR
21:59 10.6 °F 6.5 °F 1015.8 in Calm     76 % 0.0 in 0.0 W/m2 CLR
22:04 10.4 °F 6.4 °F 1015.8 in Calm     76 % 0.0 in 0.0 W/m2 CLR
22:09 10.3 °F 6.5 °F 1015.8 in Calm     77 % 0.0 in 0.0 W/m2 CLR
22:14 10.2 °F 6.6 °F 1016.1 in Calm     78 % 0.0 in 0.0 W/m2 CLR
22:19 10.1 °F 6.4 °F 1016.1 in Calm     78 % 0.0 in 0.0 W/m2 CLR
22:24 10.1 °F 6.4 °F 1016.1 in Calm     78 % 0.0 in 0.0 W/m2 CLR
22:30 10.1 °F 6.4 °F 1016.1 in Calm     78 % 0.0 in 0.0 W/m2 CLR
22:35 10.0 °F 6.3 °F 1016.1 in Calm     78 % 0.0 in 0.0 W/m2 CLR
22:39 9.9 °F 6.3 °F 1016.1 in Calm     78 % 0.0 in 0.0 W/m2 CLR
22:45 9.8 °F 6.2 °F 1016.1 in Calm     78 % 0.0 in 0.0 W/m2 CLR
22:50 9.7 °F 6.1 °F 1016.1 in Calm     78 % 0.0 in 0.0 W/m2 CLR
22:55 9.6 °F 6.2 °F 1016.1 in Calm     79 % 0.0 in 0.0 W/m2 CLR
23:00 9.5 °F 6.1 °F 1016.1 in Calm     79 % 0.0 in 0.0 W/m2 CLR
23:05 9.3 °F 6.1 °F 1016.1 in Calm     80 % 0.0 in 0.0 W/m2 CLR
23:10 9.2 °F 5.9 °F 1016.1 in Calm     80 % 0.0 in 0.0 W/m2 CLR
23:15 9.1 °F 5.9 °F 1016.1 in Calm     81 % 0.0 in 0.0 W/m2 CLR
23:20 9.0 °F 5.9 °F 1016.1 in Calm     81 % 0.0 in 0.0 W/m2 CLR
23:25 8.9 °F 5.8 °F 1016.1 in Calm     81 % 0.0 in 0.0 W/m2 CLR
23:30 8.8 °F 5.7 °F 1016.1 in Calm     81 % 0.0 in 0.0 W/m2 CLR
23:35 8.9 °F 5.8 °F 1016.1 in Calm     81 % 0.0 in 0.0 W/m2 CLR
23:40 8.9 °F 5.8 °F 1016.1 in Calm     81 % 0.0 in 0.0 W/m2 CLR
23:45 8.9 °F 5.8 °F 1016.1 in Calm     81 % 0.0 in 0.0 W/m2 CLR
23:50 8.9 °F 5.8 °F 1016.1 in Calm     81 % 0.0 in 0.0 W/m2 CLR
23:55 8.9 °F 5.8 °F 1016.1 in Calm     81 % 0.0 in 0.0 W/m2 CLR
Lo Temps de Massalio
Compliments of Weather Underground - 1.25 mb